createdAt,value
2023-05-23T00:03:00.671Z,15.70
2023-05-23T00:10:01.407Z,15.70
2023-05-23T00:17:01.744Z,15.60
2023-05-23T00:24:05.010Z,15.50
2023-05-23T00:31:05.355Z,15.40
2023-05-23T00:38:07.655Z,15.30
2023-05-23T00:45:08.319Z,15.20
2023-05-23T00:52:09.160Z,15.20
2023-05-23T00:59:09.807Z,15.20
2023-05-23T01:06:10.772Z,15.30
2023-05-23T01:13:34.216Z,15.30
2023-05-23T01:20:41.470Z,15.40
2023-05-23T01:27:46.413Z,15.40
2023-05-23T01:34:47.881Z,15.40
2023-05-23T01:41:50.474Z,15.40
2023-05-23T01:48:51.527Z,15.30
2023-05-23T01:55:52.735Z,15.20
2023-05-23T02:02:55.344Z,15.20
2023-05-23T02:09:56.306Z,15.20
2023-05-23T02:16:56.787Z,15.20
2023-05-23T02:23:57.335Z,15.20
2023-05-23T02:30:57.973Z,15.20
2023-05-23T02:37:58.260Z,15.20
2023-05-23T02:44:59.735Z,15.20
2023-05-23T02:52:00.209Z,15.20
2023-05-23T02:59:00.689Z,15.10
2023-05-23T03:06:03.354Z,15.10
2023-05-23T03:13:03.877Z,15.10
2023-05-23T03:20:06.066Z,15.10
2023-05-23T03:27:06.858Z,15.10
2023-05-23T03:34:07.647Z,15.00
2023-05-23T03:41:10.037Z,15.00
2023-05-23T03:48:11.002Z,14.90
2023-05-23T03:55:11.909Z,14.80
2023-05-23T04:02:12.798Z,14.70
2023-05-23T04:09:14.498Z,14.70
2023-05-23T04:16:17.800Z,14.70
2023-05-23T04:23:18.270Z,14.70
2023-05-23T04:30:23.250Z,14.70
2023-05-23T04:37:26.222Z,14.80
2023-05-23T04:44:30.137Z,14.80
2023-05-23T04:51:44.240Z,14.80
2023-05-23T04:58:55.985Z,14.70
2023-05-23T05:05:57.996Z,14.70
2023-05-23T05:12:58.814Z,14.60
2023-05-23T05:20:08.684Z,14.60
2023-05-23T05:27:11.851Z,14.60
2023-05-23T05:34:13.122Z,14.60
2023-05-23T05:41:13.811Z,14.60
2023-05-23T05:48:20.175Z,14.60
2023-05-23T05:55:21.737Z,14.60
2023-05-23T06:02:26.777Z,14.60
2023-05-23T06:09:27.169Z,14.50
2023-05-23T06:16:27.581Z,14.50
2023-05-23T06:23:28.919Z,14.60
2023-05-23T06:30:29.592Z,14.60
2023-05-23T06:37:30.174Z,14.60
2023-05-23T06:44:30.664Z,14.60
2023-05-23T06:51:31.479Z,14.60
2023-05-23T06:58:33.496Z,14.60
2023-05-23T07:05:38.567Z,14.70
2023-05-23T07:12:42.903Z,14.70
2023-05-23T07:19:44.000Z,14.80
2023-05-23T07:26:45.663Z,14.80
2023-05-23T07:33:44.994Z,14.90
2023-05-23T07:40:59.229Z,14.80
2023-05-23T07:48:09.485Z,14.90
2023-05-23T07:55:10.877Z,15.00
2023-05-23T08:02:11.866Z,15.00
2023-05-23T08:09:14.373Z,15.00
2023-05-23T08:16:19.977Z,15.00
2023-05-23T08:23:20.909Z,15.00
2023-05-23T08:30:23.078Z,15.00
2023-05-23T08:37:24.047Z,15.00
2023-05-23T08:44:24.572Z,15.00
2023-05-23T08:51:31.852Z,14.90
2023-05-23T08:58:36.024Z,14.80
2023-05-23T09:05:37.683Z,14.80
2023-05-23T09:12:38.694Z,14.80
2023-05-23T09:19:41.966Z,14.70
2023-05-23T09:26:56.841Z,14.70
2023-05-23T09:33:58.451Z,14.70
2023-05-23T09:40:59.563Z,14.60
2023-05-23T09:48:01.559Z,14.60
2023-05-23T09:55:01.906Z,14.50
2023-05-23T10:02:03.766Z,14.40
2023-05-23T10:09:06.160Z,14.50
2023-05-23T10:16:14.919Z,14.60
2023-05-23T10:23:16.198Z,14.50
2023-05-23T10:30:16.341Z,14.50
2023-05-23T10:37:50.991Z,14.80
2023-05-23T10:44:51.289Z,15.00
2023-05-23T10:51:54.868Z,14.90
2023-05-23T10:58:56.638Z,14.60
2023-05-23T11:05:56.987Z,14.30
2023-05-23T11:13:07.146Z,14.30
2023-05-23T11:20:13.142Z,14.30
2023-05-23T11:27:13.833Z,14.40
2023-05-23T11:34:14.511Z,14.40
2023-05-23T11:41:15.255Z,14.20
2023-05-23T11:48:17.512Z,14.40
2023-05-23T11:55:21.079Z,14.70
2023-05-23T12:02:25.221Z,15.30
2023-05-23T12:09:25.976Z,15.60
2023-05-23T12:16:31.330Z,15.70
2023-05-23T12:23:34.730Z,15.60
2023-05-23T12:30:43.103Z,15.60
2023-05-23T12:37:47.267Z,15.60
2023-05-23T12:44:51.888Z,15.60
2023-05-23T12:51:52.440Z,15.60
2023-05-23T12:58:53.954Z,15.80
2023-05-23T13:05:54.446Z,15.90
2023-05-23T13:12:54.892Z,15.90
2023-05-23T13:19:55.528Z,16.10
2023-05-23T13:26:55.940Z,16.30
2023-05-23T13:33:56.196Z,16.80
2023-05-23T13:40:56.380Z,17.10
2023-05-23T13:47:56.805Z,17.20
2023-05-23T13:54:57.193Z,17.30
2023-05-23T14:01:57.536Z,17.60
2023-05-23T14:08:58.077Z,17.50
2023-05-23T14:15:58.356Z,17.30
2023-05-23T14:22:58.855Z,17.50
2023-05-23T14:29:59.333Z,17.60
2023-05-23T14:37:00.791Z,17.60
2023-05-23T14:44:01.237Z,17.70
2023-05-23T14:51:01.872Z,18.00
2023-05-23T14:58:03.429Z,18.90
2023-05-23T15:05:04.751Z,18.40
2023-05-23T15:12:07.542Z,18.10
2023-05-23T15:19:08.064Z,18.20
2023-05-23T15:26:08.404Z,19.20
2023-05-23T15:33:08.832Z,19.60
2023-05-23T15:40:09.888Z,19.80
2023-05-23T15:47:10.606Z,19.20
2023-05-23T15:54:11.769Z,19.60
2023-05-23T16:01:12.239Z,19.50
2023-05-23T16:08:12.341Z,18.80
2023-05-23T16:15:12.888Z,18.40
2023-05-23T16:22:13.418Z,18.00
2023-05-23T16:29:14.129Z,17.60
2023-05-23T16:36:14.536Z,17.40
2023-05-23T16:43:14.941Z,17.40
2023-05-23T16:50:15.378Z,17.30
2023-05-23T16:57:15.696Z,16.90
2023-05-23T17:04:17.583Z,17.20
2023-05-23T17:11:19.613Z,17.50
2023-05-23T17:18:20.460Z,17.40
2023-05-23T17:25:20.926Z,17.00
2023-05-23T17:32:21.153Z,16.80
2023-05-23T17:39:21.549Z,16.60
2023-05-23T17:46:22.052Z,16.60
2023-05-23T17:53:22.359Z,17.00
2023-05-23T18:00:23.013Z,17.00
2023-05-23T18:07:23.516Z,16.80
2023-05-23T18:14:23.926Z,16.50
2023-05-23T18:21:24.265Z,16.20
2023-05-23T18:28:24.766Z,15.90
2023-05-23T18:35:25.759Z,15.70
2023-05-23T18:42:26.231Z,15.60
2023-05-23T18:49:26.924Z,15.50
2023-05-23T18:56:27.349Z,15.30
2023-05-23T19:03:27.896Z,15.10
2023-05-23T19:10:28.829Z,15.10
2023-05-23T19:17:28.916Z,15.00
2023-05-23T19:24:29.533Z,14.90
2023-05-23T19:31:30.021Z,14.70
2023-05-23T19:38:30.600Z,14.40
2023-05-23T19:45:30.892Z,14.10
2023-05-23T19:52:31.308Z,13.80
2023-05-23T19:59:31.462Z,13.70
2023-05-23T20:06:33.282Z,13.50
2023-05-23T20:13:33.429Z,13.30
2023-05-23T20:20:33.946Z,13.20
2023-05-23T20:27:34.456Z,13.10
2023-05-23T20:34:34.858Z,12.90
2023-05-23T20:41:35.431Z,12.80
2023-05-23T20:48:35.927Z,12.50
2023-05-23T20:55:37.947Z,12.40
2023-05-23T21:02:39.088Z,12.30
2023-05-23T21:09:40.231Z,12.30
2023-05-23T21:16:43.606Z,12.20
2023-05-23T21:23:43.967Z,12.10
2023-05-23T21:30:44.759Z,11.90
2023-05-23T21:37:45.278Z,11.80
2023-05-23T21:44:45.759Z,11.60
2023-05-23T21:51:46.109Z,11.50
2023-05-23T21:58:46.511Z,11.40
2023-05-23T22:05:46.994Z,11.30
2023-05-23T22:12:47.643Z,11.10
2023-05-23T22:19:48.565Z,11.00
2023-05-23T22:26:49.202Z,10.90
2023-05-23T22:33:49.747Z,10.80
2023-05-23T22:40:50.183Z,10.70
2023-05-23T22:47:50.621Z,10.50
2023-05-23T22:54:51.787Z,10.40
2023-05-23T23:01:52.220Z,10.30
2023-05-23T23:08:52.726Z,10.10
2023-05-23T23:15:52.970Z,10.00
2023-05-23T23:22:53.538Z,9.80
2023-05-23T23:29:53.816Z,9.70
2023-05-23T23:36:54.134Z,9.60
2023-05-23T23:43:54.662Z,9.40
2023-05-23T23:50:55.272Z,9.30
2023-05-23T23:57:55.975Z,9.10
